Crinis — A8ZS6 — position and weather

sailwx.info

Track history (hours):
 
Tides and Currents Weather Stations Pressure Air Temp Water Temp Dewpoint Dewpoint Depression Visibility Wind Speed Wind Dir Waves Ship Positions

Crinis

Last reported at 2017-Sep-19 12:45 UTC. Time now 2017-Sep-21 07:14 UTC.
Position N 36°48' W 075°48'.

Length 169 m; draft 7.1 m.

Type: Cargo ship. MMSI: 636015289.

Date/timePositionNaut miles runAvg speedWind from/ knotsBaromVisibWave heightAir tempDewpointWater temp
2017-Sep-19 12:45N 36°48' W 075°48'312.5
2017-Sep-19 12:30N 36°50' W 075°51'611.4
2017-Sep-19 12:00N 36°54' W 075°55'611.4
2017-Sep-19 11:30N 36°57' W 076°02'611.2
2017-Sep-19 11:00N 36°59' W 076°08'611.2
2017-Sep-19 10:28N 37°00' W 076°16'5 9.7
2017-Sep-19 09:59N 36°58' W 076°20'5 9.6
2017-Sep-19 09:30N 36°53' W 076°20'3 5.8
2017-Sep-19 09:00N 36°51' W 076°18'2 3.7
2017-Sep-19 08:30N 36°49' W 076°17'0 0.0
2017-Sep-19 08:00N 36°49' W 076°17'0 0.0
2017-Sep-19 07:30N 36°49' W 076°17'0 0.0
2017-Sep-19 07:00N 36°49' W 076°17'0 0.0
2017-Sep-19 06:30N 36°49' W 076°17'0 0.0
2017-Sep-19 05:57N 36°49' W 076°17'0 0.0
2017-Sep-19 05:30N 36°49' W 076°17'0 0.0
2017-Sep-19 05:00N 36°49' W 076°17'0 0.0
2017-Sep-19 04:30N 36°49' W 076°17'0 0.0
2017-Sep-19 04:00N 36°49' W 076°17'0 0.0
2017-Sep-19 03:30N 36°49' W 076°17'0 0.0
2017-Sep-19 03:00N 36°49' W 076°17'0 0.0
2017-Sep-19 02:30N 36°49' W 076°17'0 0.0
2017-Sep-19 02:00N 36°49' W 076°17'0 0.0
2017-Sep-19 01:30N 36°49' W 076°17'0 0.0
2017-Sep-19 01:00N 36°49' W 076°17'0 0.0
2017-Sep-19 00:30N 36°49' W 076°17'0 0.0
2017-Sep-19 00:00N 36°49' W 076°17'0 0.0
2017-Sep-18 23:30N 36°49' W 076°17'0 0.0
2017-Sep-18 23:00N 36°49' W 076°17'0 0.0
2017-Sep-18 22:27N 36°49' W 076°17'0 0.0
2017-Sep-18 22:00N 36°49' W 076°17'0 0.0
2017-Sep-18 21:30N 36°49' W 076°17'0 0.0
2017-Sep-18 21:00N 36°49' W 076°17'0 0.0
2017-Sep-18 20:30N 36°49' W 076°17'0 0.0
2017-Sep-18 20:00N 36°49' W 076°17'0 0.0
2017-Sep-18 19:30N 36°49' W 076°17'0 0.0
2017-Sep-18 19:01N 36°49' W 076°17'2 3.9
2017-Sep-18 18:30N 36°51' W 076°18'3 6.7
2017-Sep-18 18:00N 36°54' W 076°20'4 8.0
2017-Sep-18 17:30N 36°57' W 076°22'5 8.6
2017-Sep-18 16:56N 36°59' W 076°27'12 9.5
2017-Sep-18 15:42N 37°07' W 076°38'4 9.8
2017-Sep-18 15:17N 37°11' W 076°38'  
2017-Sep-15 11:25N 37°01' W 076°30'4 8.6
2017-Sep-15 10:59N 36°58' W 076°26'0 0.3
2017-Sep-15 10:29N 36°58' W 076°26'0 0.0
2017-Sep-15 09:59N 36°58' W 076°26'0 0.1
2017-Sep-15 09:29N 36°58' W 076°27'0 0.1
2017-Sep-15 08:59N 36°58' W 076°27'0 0.0
2017-Sep-15 08:26N 36°58' W 076°27'0 0.0
2017-Sep-15 07:59N 36°58' W 076°27'0 0.0
2017-Sep-15 07:29N 36°58' W 076°27'0 0.1
2017-Sep-15 06:59N 36°58' W 076°27'0 0.2
2017-Sep-15 06:08N 36°58' W 076°26'0 0.4
2017-Sep-15 06:00N 36°58' W 076°26'3 6.2
2017-Sep-15 05:27N 36°57' W 076°22'1011.0
2017-Sep-15 04:35N 36°59' W 076°10'111.8
2017-Sep-15 04:30N 36°59' W 076°09'611.8
2017-Sep-15 04:00N 36°58' W 076°02'611.1
2017-Sep-15 03:30N 36°57' W 075°55'4 8.5
2017-Sep-15 03:00N 36°57' W 075°50'712.4
2017-Sep-15 02:28N 37°02' W 075°44'10111.7
2017-Sep-14 17:50N 38°31' W 074°43'4 1.1
2017-Sep-14 14:11N 38°35' W 074°44'0 0.0
2017-Sep-14 13:59N 38°35' W 074°44'0 0.0
2017-Sep-14 13:23N 38°35' W 074°44'0 0.0
2017-Sep-14 12:59N 38°35' W 074°44'0 0.0
2017-Sep-14 12:29N 38°35' W 074°44'0 0.0
2017-Sep-14 11:56N 38°35' W 074°44'0 0.0
2017-Sep-14 11:26N 38°35' W 074°44'0 0.0
2017-Sep-14 10:47N 38°35' W 074°44'0 0.1
2017-Sep-14 10:29N 38°35' W 074°44'0 0.0
2017-Sep-14 09:59N 38°35' W 074°44'0 0.0
2017-Sep-14 09:29N 38°35' W 074°44'0 0.0
2017-Sep-14 08:59N 38°35' W 074°44'0 0.0
2017-Sep-14 08:29N 38°35' W 074°44'0 0.0
2017-Sep-14 07:56N 38°35' W 074°44'0 0.0
2017-Sep-14 07:29N 38°35' W 074°44'0 0.0
2017-Sep-14 06:59N 38°35' W 074°44'0 0.0
2017-Sep-14 06:29N 38°35' W 074°44'0 0.0
2017-Sep-14 05:56N 38°35' W 074°44'0 0.0
2017-Sep-14 05:29N 38°35' W 074°44'0 0.0
2017-Sep-14 04:59N 38°35' W 074°44'0 0.0
2017-Sep-14 04:29N 38°35' W 074°44'0 0.0
2017-Sep-14 03:59N 38°35' W 074°44'0 0.0
2017-Sep-14 03:23N 38°35' W 074°44'0 0.0
2017-Sep-14 02:59N 38°35' W 074°44'0 0.0
2017-Sep-14 02:26N 38°35' W 074°44'0 0.0
2017-Sep-14 01:59N 38°35' W 074°44'0 0.0
2017-Sep-14 00:47N 38°35' W 074°44'0 0.0
2017-Sep-14 00:23N 38°35' W 074°44'0 0.0
2017-Sep-13 23:53N 38°35' W 074°44'0 0.0
2017-Sep-13 22:20N 38°35' W 074°44'0 0.0
2017-Sep-13 21:59N 38°35' W 074°44'0 0.0
2017-Sep-13 18:23N 38°35' W 074°44'0 0.0
2017-Sep-13 12:05N 38°35' W 074°44'0 0.0
2017-Sep-13 11:47N 38°35' W 074°44'0 0.0
2017-Sep-13 11:29N 38°35' W 074°44'0 0.0
2017-Sep-13 10:14N 38°35' W 074°44'0 0.1
2017-Sep-13 09:59N 38°35' W 074°44'0 0.0
2017-Sep-13 09:29N 38°35' W 074°44'0 0.0
2017-Sep-13 08:59N 38°35' W 074°44'0 0.0
2017-Sep-13 08:23N 38°35' W 074°44'0 0.0
2017-Sep-13 07:59N 38°35' W 074°44'0 0.0
2017-Sep-13 07:29N 38°35' W 074°44'0 0.0
2017-Sep-13 06:56N 38°35' W 074°44'0 0.0
2017-Sep-13 06:29N 38°35' W 074°44'0 0.0
2017-Sep-13 05:59N 38°35' W 074°44'0 0.0
2017-Sep-13 05:29N 38°35' W 074°44'0 0.0
2017-Sep-13 04:59N 38°35' W 074°44'0 0.0
2017-Sep-13 04:29N 38°35' W 074°44'0 0.0
2017-Sep-13 03:59N 38°35' W 074°44'0 0.0
2017-Sep-13 03:29N 38°35' W 074°44'0 0.0
2017-Sep-13 02:59N 38°35' W 074°44'0 0.0
2017-Sep-13 02:29N 38°35' W 074°44'0 0.0
2017-Sep-13 01:59N 38°35' W 074°44'0 0.0
2017-Sep-13 01:26N 38°35' W 074°44'0 0.0
2017-Sep-13 00:59N 38°35' W 074°44'0 0.0
2017-Sep-13 00:29N 38°35' W 074°44'0 0.1
2017-Sep-12 23:59N 38°35' W 074°44'0 0.1
2017-Sep-12 23:29N 38°35' W 074°44'0 0.1
2017-Sep-12 22:59N 38°35' W 074°44'0 0.1
2017-Sep-12 22:29N 38°35' W 074°44'0 0.0
2017-Sep-12 21:59N 38°35' W 074°44'0 0.0
2017-Sep-12 21:23N 38°35' W 074°44'0 0.1
2017-Sep-12 20:59N 38°35' W 074°44'2 3.8
2017-Sep-12 20:30N 38°35' W 074°46'713.1
2017-Sep-12 20:01N 38°38' W 074°53'612.7
2017-Sep-12 19:30N 38°43' W 074°58'612.5
2017-Sep-12 19:00N 38°48' W 075°03'6 9.9
2017-Sep-12 18:23N 38°54' W 075°06'612.9
2017-Sep-12 17:55N 38°59' W 075°08'512.9
2017-Sep-12 17:30N 39°04' W 075°11'612.5
2017-Sep-12 17:00N 39°10' W 075°15'612.4
2017-Sep-12 16:31N 39°15' W 075°19'713.2
2017-Sep-12 16:00N 39°20' W 075°25'714.1
2017-Sep-12 15:30N 39°25' W 075°31'612.9
2017-Sep-12 15:00N 39°31' W 075°33'612.4
2017-Sep-12 14:30N 39°37' W 075°35'713.3
2017-Sep-12 14:01N 39°43' W 075°30'611.7
2017-Sep-12 13:31N 39°48' W 075°26'611.7
2017-Sep-12 13:00N 39°51' W 075°20'5 9.2
2017-Sep-12 12:31N 39°52' W 075°14'23 7.2
2017-Sep-12 09:15N 40°07' W 074°50'1 5.9
2017-Sep-12 09:00N 40°08' W 074°49'3 5.3
2017-Sep-12 08:31N 40°08' W 074°45'0 0.4
2017-Sep-12 07:59N 40°08' W 074°45'0 0.0
2017-Sep-12 07:29N 40°08' W 074°45'0 0.0
2017-Sep-12 06:59N 40°08' W 074°45'0 0.0
2017-Sep-12 06:26N 40°08' W 074°45'0 0.0
2017-Sep-12 05:56N 40°08' W 074°45'0 0.0
2017-Sep-12 05:29N 40°08' W 074°45'0 0.0
2017-Sep-12 04:59N 40°08' W 074°45'0 0.0
2017-Sep-12 04:29N 40°08' W 074°45'0 0.0
2017-Sep-12 04:00N 40°08' W 074°45'0 0.0
2017-Sep-12 03:29N 40°08' W 074°45'0 0.0
2017-Sep-12 02:59N 40°08' W 074°45'0 0.0
2017-Sep-12 02:29N 40°08' W 074°45'0 0.0
2017-Sep-12 01:59N 40°08' W 074°45'0 0.0
2017-Sep-12 01:30N 40°08' W 074°45'0 0.0
2017-Sep-12 01:00N 40°08' W 074°45'0 0.0
2017-Sep-12 00:30N 40°08' W 074°45'0 0.0
2017-Sep-12 00:00N 40°08' W 074°45'0 0.0
2017-Sep-11 23:30N 40°08' W 074°45'0 0.0
2017-Sep-11 23:00N 40°08' W 074°45'0 0.0
2017-Sep-11 22:29N 40°08' W 074°45'0 0.0
2017-Sep-11 21:59N 40°08' W 074°45'0 0.0
2017-Sep-11 21:30N 40°08' W 074°45'0 0.0
2017-Sep-11 20:57N 40°08' W 074°45'0 0.0
2017-Sep-11 20:30N 40°08' W 074°45'0 0.0
2017-Sep-11 19:59N 40°08' W 074°45'0 0.0
2017-Sep-11 19:29N 40°08' W 074°45'0 0.0
2017-Sep-11 19:00N 40°08' W 074°45'0 0.0
2017-Sep-11 18:29N 40°08' W 074°45'0 0.0
2017-Sep-11 17:59N 40°08' W 074°45'0 0.0
2017-Sep-11 17:30N 40°08' W 074°45'0 0.0
2017-Sep-11 16:54N 40°08' W 074°45'0 0.0
2017-Sep-11 16:30N 40°08' W 074°45'0 0.0
2017-Sep-11 16:00N 40°08' W 074°45'0 0.0
2017-Sep-11 15:30N 40°08' W 074°45'0 0.0
2017-Sep-11 15:00N 40°08' W 074°45'0 0.0
2017-Sep-11 14:30N 40°08' W 074°45'0 0.0
2017-Sep-11 13:59N 40°08' W 074°45'0 0.0
2017-Sep-11 13:21N 40°08' W 074°45'0 0.0
2017-Sep-11 12:59N 40°08' W 074°45'0 0.0
2017-Sep-11 12:30N 40°08' W 074°45'0 0.0
2017-Sep-11 11:59N 40°08' W 074°45'0 0.0
2017-Sep-11 11:30N 40°08' W 074°45'0 0.0
2017-Sep-11 11:00N 40°08' W 074°45'0 0.0
2017-Sep-11 10:30N 40°08' W 074°45'0 0.0
2017-Sep-11 10:00N 40°08' W 074°45'0 0.0
2017-Sep-11 09:29N 40°08' W 074°45'0 0.0
2017-Sep-11 09:00N 40°08' W 074°45'0 0.0
2017-Sep-11 08:29N 40°08' W 074°45'0 0.0
2017-Sep-11 07:59N 40°08' W 074°45'0 0.0
2017-Sep-11 07:29N 40°08' W 074°45'0 0.0
2017-Sep-11 07:00N 40°08' W 074°45'0 0.0
2017-Sep-11 06:29N 40°08' W 074°45'0 0.0
2017-Sep-11 06:00N 40°08' W 074°45'0 0.0
2017-Sep-11 05:30N 40°08' W 074°45'0 0.0
2017-Sep-11 05:00N 40°08' W 074°45'0 0.0
2017-Sep-11 04:29N 40°08' W 074°45'0 0.0
2017-Sep-11 04:00N 40°08' W 074°45'0 0.0
2017-Sep-11 03:26N 40°08' W 074°45'0 0.0
2017-Sep-11 02:59N 40°08' W 074°45'0 0.0
2017-Sep-11 02:30N 40°08' W 074°45'0 0.0
2017-Sep-11 02:00N 40°08' W 074°45'0 0.0
2017-Sep-11 01:29N 40°08' W 074°45'0 0.0
2017-Sep-11 00:59N 40°08' W 074°45'0 0.0
2017-Sep-11 00:29N 40°08' W 074°45'0 0.0
2017-Sep-10 23:59N 40°08' W 074°45'0 0.0
2017-Sep-10 23:30N 40°08' W 074°45'0 0.0
2017-Sep-10 22:59N 40°08' W 074°45'0 0.0
2017-Sep-10 22:30N 40°08' W 074°45'0 0.0
2017-Sep-10 21:59N 40°08' W 074°45'0 0.0
2017-Sep-10 21:29N 40°08' W 074°45'0 0.0
2017-Sep-10 20:59N 40°08' W 074°45'0 0.0
2017-Sep-10 20:30N 40°08' W 074°45'0 0.0
2017-Sep-10 20:00N 40°08' W 074°45'0 0.0
2017-Sep-10 19:26N 40°08' W 074°45'0 0.0
2017-Sep-10 18:59N 40°08' W 074°45'0 0.0
2017-Sep-10 18:30N 40°08' W 074°45'0 0.0
2017-Sep-10 18:00N 40°08' W 074°45'0 0.0
2017-Sep-10 17:27N 40°08' W 074°45'0 0.0
2017-Sep-10 16:59N 40°08' W 074°45'0 0.0
2017-Sep-10 16:30N 40°08' W 074°45'0 0.0
2017-Sep-10 16:00N 40°08' W 074°45'0 0.0
2017-Sep-10 15:30N 40°08' W 074°45'0 0.0
2017-Sep-10 15:00N 40°08' W 074°45'0 0.0
2017-Sep-10 14:00N 40°08' W 074°45'0 0.0
2017-Sep-10 13:30N 40°08' W 074°45'0 0.0
2017-Sep-10 13:00N 40°08' W 074°45'0 0.0
2017-Sep-10 12:30N 40°08' W 074°45'0 0.0
2017-Sep-10 12:00N 40°08' W 074°45'0 0.0
2017-Sep-10 11:30N 40°08' W 074°45'0 0.0
2017-Sep-10 11:00N 40°08' W 074°45'0 0.0
2017-Sep-10 10:30N 40°08' W 074°45'0 0.0
2017-Sep-10 10:00N 40°08' W 074°45'0 0.0
2017-Sep-10 09:30N 40°08' W 074°45'0 0.0
2017-Sep-10 09:00N 40°08' W 074°45'0 0.0
2017-Sep-10 08:30N 40°08' W 074°45'0 0.0
2017-Sep-10 08:00N 40°08' W 074°45'0 0.0
2017-Sep-10 07:30N 40°08' W 074°45'0 0.0
2017-Sep-10 07:00N 40°08' W 074°45'0 0.0
2017-Sep-10 06:30N 40°08' W 074°45'0 0.0
2017-Sep-10 05:54N 40°08' W 074°45'0 0.0
2017-Sep-10 05:30N 40°08' W 074°45'0 0.0
2017-Sep-10 04:59N 40°08' W 074°45'0 0.0
2017-Sep-10 04:29N 40°08' W 074°45'0 0.0
2017-Sep-10 03:57N 40°08' W 074°45'0 0.0
2017-Sep-10 03:29N 40°08' W 074°45'0 0.0
2017-Sep-10 02:59N 40°08' W 074°45'0 0.0
2017-Sep-10 02:30N 40°08' W 074°45'0 0.0
2017-Sep-10 01:59N 40°08' W 074°45'0 0.0
2017-Sep-10 01:30N 40°08' W 074°45'0 0.0
2017-Sep-10 01:00N 40°08' W 074°45'0 0.0
2017-Sep-10 00:30N 40°08' W 074°45'0 0.0
2017-Sep-10 00:00N 40°08' W 074°45'0 0.0
2017-Sep-09 23:30N 40°08' W 074°45'0 0.0
2017-Sep-09 23:00N 40°08' W 074°45'0 0.0
2017-Sep-09 22:30N 40°08' W 074°45'0 0.0
2017-Sep-09 22:00N 40°08' W 074°45'0 0.0
2017-Sep-09 21:30N 40°08' W 074°45'0 0.0
2017-Sep-09 21:00N 40°08' W 074°45'0 0.0
2017-Sep-09 20:27N 40°08' W 074°45'0 0.0
2017-Sep-09 20:00N 40°08' W 074°45'0 0.0
2017-Sep-09 19:27N 40°08' W 074°45'0 0.0
2017-Sep-09 19:00N 40°08' W 074°45'0 0.0
2017-Sep-09 18:30N 40°08' W 074°45'0 0.0
2017-Sep-09 18:00N 40°08' W 074°45'0 0.0
2017-Sep-09 17:30N 40°08' W 074°45'0 0.0
2017-Sep-09 16:59N 40°08' W 074°45'0 0.0
2017-Sep-09 16:30N 40°08' W 074°45'0 0.0
2017-Sep-09 15:59N 40°08' W 074°45'0 0.0
2017-Sep-09 15:30N 40°08' W 074°45'0 0.0
2017-Sep-09 15:00N 40°08' W 074°45'0 0.0
2017-Sep-09 14:26N 40°08' W 074°45'0 0.0
2017-Sep-09 14:00N 40°08' W 074°45'0 0.0
2017-Sep-09 13:29N 40°08' W 074°45'0 0.0
2017-Sep-09 13:00N 40°08' W 074°45'  
Track history (hours):
 
Tides and Currents Weather Stations Pressure Air Temp Water Temp Dewpoint Dewpoint Depression Visibility Wind Speed Wind Dir Waves Ship Positions

Crinis

Last reported at 2017-Sep-19 12:45 UTC. Time now 2017-Sep-21 07:14 UTC.
Position N 36°48' W 075°48'.

Length 169 m; draft 7.1 m.

Type: Cargo ship. MMSI: 636015289.

Date/timePositionNaut miles runAvg speedWind from/ knotsBaromVisibWave heightAir tempDewpointWater temp
2017-Sep-19 12:45N 36°48' W 075°48'312.5
2017-Sep-19 12:30N 36°50' W 075°51'611.4
2017-Sep-19 12:00N 36°54' W 075°55'611.4
2017-Sep-19 11:30N 36°57' W 076°02'611.2
2017-Sep-19 11:00N 36°59' W 076°08'611.2
2017-Sep-19 10:28N 37°00' W 076°16'5 9.7
2017-Sep-19 09:59N 36°58' W 076°20'5 9.6
2017-Sep-19 09:30N 36°53' W 076°20'3 5.8
2017-Sep-19 09:00N 36°51' W 076°18'2 3.7
2017-Sep-19 08:30N 36°49' W 076°17'0 0.0
2017-Sep-19 08:00N 36°49' W 076°17'0 0.0
2017-Sep-19 07:30N 36°49' W 076°17'0 0.0
2017-Sep-19 07:00N 36°49' W 076°17'0 0.0
2017-Sep-19 06:30N 36°49' W 076°17'0 0.0
2017-Sep-19 05:57N 36°49' W 076°17'0 0.0
2017-Sep-19 05:30N 36°49' W 076°17'0 0.0
2017-Sep-19 05:00N 36°49' W 076°17'0 0.0
2017-Sep-19 04:30N 36°49' W 076°17'0 0.0
2017-Sep-19 04:00N 36°49' W 076°17'0 0.0
2017-Sep-19 03:30N 36°49' W 076°17'0 0.0
2017-Sep-19 03:00N 36°49' W 076°17'0 0.0
2017-Sep-19 02:30N 36°49' W 076°17'0 0.0
2017-Sep-19 02:00N 36°49' W 076°17'0 0.0
2017-Sep-19 01:30N 36°49' W 076°17'0 0.0
2017-Sep-19 01:00N 36°49' W 076°17'0 0.0
2017-Sep-19 00:30N 36°49' W 076°17'0 0.0
2017-Sep-19 00:00N 36°49' W 076°17'0 0.0
2017-Sep-18 23:30N 36°49' W 076°17'0 0.0
2017-Sep-18 23:00N 36°49' W 076°17'0 0.0
2017-Sep-18 22:27N 36°49' W 076°17'0 0.0
2017-Sep-18 22:00N 36°49' W 076°17'0 0.0
2017-Sep-18 21:30N 36°49' W 076°17'0 0.0
2017-Sep-18 21:00N 36°49' W 076°17'0 0.0
2017-Sep-18 20:30N 36°49' W 076°17'0 0.0
2017-Sep-18 20:00N 36°49' W 076°17'0 0.0
2017-Sep-18 19:30N 36°49' W 076°17'0 0.0
2017-Sep-18 19:01N 36°49' W 076°17'2 3.9
2017-Sep-18 18:30N 36°51' W 076°18'3 6.7
2017-Sep-18 18:00N 36°54' W 076°20'4 8.0
2017-Sep-18 17:30N 36°57' W 076°22'5 8.6
2017-Sep-18 16:56N 36°59' W 076°27'12 9.5
2017-Sep-18 15:42N 37°07' W 076°38'4 9.8
2017-Sep-18 15:17N 37°11' W 076°38'  
2017-Sep-15 11:25N 37°01' W 076°30'4 8.6
2017-Sep-15 10:59N 36°58' W 076°26'0 0.3
2017-Sep-15 10:29N 36°58' W 076°26'0 0.0
2017-Sep-15 09:59N 36°58' W 076°26'0 0.1
2017-Sep-15 09:29N 36°58' W 076°27'0 0.1
2017-Sep-15 08:59N 36°58' W 076°27'0 0.0
2017-Sep-15 08:26N 36°58' W 076°27'0 0.0
2017-Sep-15 07:59N 36°58' W 076°27'0 0.0
2017-Sep-15 07:29N 36°58' W 076°27'0 0.1
2017-Sep-15 06:59N 36°58' W 076°27'0 0.2
2017-Sep-15 06:08N 36°58' W 076°26'0 0.4
2017-Sep-15 06:00N 36°58' W 076°26'3 6.2
2017-Sep-15 05:27N 36°57' W 076°22'1011.0
2017-Sep-15 04:35N 36°59' W 076°10'111.8
2017-Sep-15 04:30N 36°59' W 076°09'611.8
2017-Sep-15 04:00N 36°58' W 076°02'611.1
2017-Sep-15 03:30N 36°57' W 075°55'4 8.5
2017-Sep-15 03:00N 36°57' W 075°50'712.4
2017-Sep-15 02:28N 37°02' W 075°44'10111.7
2017-Sep-14 17:50N 38°31' W 074°43'4 1.1
2017-Sep-14 14:11N 38°35' W 074°44'0 0.0
2017-Sep-14 13:59N 38°35' W 074°44'0 0.0
2017-Sep-14 13:23N 38°35' W 074°44'0 0.0
2017-Sep-14 12:59N 38°35' W 074°44'0 0.0
2017-Sep-14 12:29N 38°35' W 074°44'0 0.0
2017-Sep-14 11:56N 38°35' W 074°44'0 0.0
2017-Sep-14 11:26N 38°35' W 074°44'0 0.0
2017-Sep-14 10:47N 38°35' W 074°44'0 0.1
2017-Sep-14 10:29N 38°35' W 074°44'0 0.0
2017-Sep-14 09:59N 38°35' W 074°44'0 0.0
2017-Sep-14 09:29N 38°35' W 074°44'0 0.0
2017-Sep-14 08:59N 38°35' W 074°44'0 0.0
2017-Sep-14 08:29N 38°35' W 074°44'0 0.0
2017-Sep-14 07:56N 38°35' W 074°44'0 0.0
2017-Sep-14 07:29N 38°35' W 074°44'0 0.0
2017-Sep-14 06:59N 38°35' W 074°44'0 0.0
2017-Sep-14 06:29N 38°35' W 074°44'0 0.0
2017-Sep-14 05:56N 38°35' W 074°44'0 0.0
2017-Sep-14 05:29N 38°35' W 074°44'0 0.0
2017-Sep-14 04:59N 38°35' W 074°44'0 0.0
2017-Sep-14 04:29N 38°35' W 074°44'0 0.0
2017-Sep-14 03:59N 38°35' W 074°44'0 0.0
2017-Sep-14 03:23N 38°35' W 074°44'0 0.0
2017-Sep-14 02:59N 38°35' W 074°44'0 0.0
2017-Sep-14 02:26N 38°35' W 074°44'0 0.0
2017-Sep-14 01:59N 38°35' W 074°44'0 0.0
2017-Sep-14 00:47N 38°35' W 074°44'0 0.0
2017-Sep-14 00:23N 38°35' W 074°44'0 0.0
2017-Sep-13 23:53N 38°35' W 074°44'0 0.0
2017-Sep-13 22:20N 38°35' W 074°44'0 0.0
2017-Sep-13 21:59N 38°35' W 074°44'0 0.0
2017-Sep-13 18:23N 38°35' W 074°44'0 0.0
2017-Sep-13 12:05N 38°35' W 074°44'0 0.0
2017-Sep-13 11:47N 38°35' W 074°44'0 0.0
2017-Sep-13 11:29N 38°35' W 074°44'0 0.0
2017-Sep-13 10:14N 38°35' W 074°44'0 0.1
2017-Sep-13 09:59N 38°35' W 074°44'0 0.0
2017-Sep-13 09:29N 38°35' W 074°44'0 0.0
2017-Sep-13 08:59N 38°35' W 074°44'0 0.0
2017-Sep-13 08:23N 38°35' W 074°44'0 0.0
2017-Sep-13 07:59N 38°35' W 074°44'0 0.0
2017-Sep-13 07:29N 38°35' W 074°44'0 0.0
2017-Sep-13 06:56N 38°35' W 074°44'0 0.0
2017-Sep-13 06:29N 38°35' W 074°44'0 0.0
2017-Sep-13 05:59N 38°35' W 074°44'0 0.0
2017-Sep-13 05:29N 38°35' W 074°44'0 0.0
2017-Sep-13 04:59N 38°35' W 074°44'0 0.0
2017-Sep-13 04:29N 38°35' W 074°44'0 0.0
2017-Sep-13 03:59N 38°35' W 074°44'0 0.0
2017-Sep-13 03:29N 38°35' W 074°44'0 0.0
2017-Sep-13 02:59N 38°35' W 074°44'0 0.0
2017-Sep-13 02:29N 38°35' W 074°44'0 0.0
2017-Sep-13 01:59N 38°35' W 074°44'0 0.0
2017-Sep-13 01:26N 38°35' W 074°44'0 0.0
2017-Sep-13 00:59N 38°35' W 074°44'0 0.0
2017-Sep-13 00:29N 38°35' W 074°44'0 0.1
2017-Sep-12 23:59N 38°35' W 074°44'0 0.1
2017-Sep-12 23:29N 38°35' W 074°44'0 0.1
2017-Sep-12 22:59N 38°35' W 074°44'0 0.1
2017-Sep-12 22:29N 38°35' W 074°44'0 0.0
2017-Sep-12 21:59N 38°35' W 074°44'0 0.0
2017-Sep-12 21:23N 38°35' W 074°44'0 0.1
2017-Sep-12 20:59N 38°35' W 074°44'2 3.8
2017-Sep-12 20:30N 38°35' W 074°46'713.1
2017-Sep-12 20:01N 38°38' W 074°53'612.7
2017-Sep-12 19:30N 38°43' W 074°58'612.5
2017-Sep-12 19:00N 38°48' W 075°03'6 9.9
2017-Sep-12 18:23N 38°54' W 075°06'612.9
2017-Sep-12 17:55N 38°59' W 075°08'512.9
2017-Sep-12 17:30N 39°04' W 075°11'612.5
2017-Sep-12 17:00N 39°10' W 075°15'612.4
2017-Sep-12 16:31N 39°15' W 075°19'713.2
2017-Sep-12 16:00N 39°20' W 075°25'714.1
2017-Sep-12 15:30N 39°25' W 075°31'612.9
2017-Sep-12 15:00N 39°31' W 075°33'612.4
2017-Sep-12 14:30N 39°37' W 075°35'713.3
2017-Sep-12 14:01N 39°43' W 075°30'611.7
2017-Sep-12 13:31N 39°48' W 075°26'611.7
2017-Sep-12 13:00N 39°51' W 075°20'5 9.2
2017-Sep-12 12:31N 39°52' W 075°14'23 7.2
2017-Sep-12 09:15N 40°07' W 074°50'1 5.9
2017-Sep-12 09:00N 40°08' W 074°49'3 5.3
2017-Sep-12 08:31N 40°08' W 074°45'0 0.4
2017-Sep-12 07:59N 40°08' W 074°45'0 0.0
2017-Sep-12 07:29N 40°08' W 074°45'0 0.0
2017-Sep-12 06:59N 40°08' W 074°45'0 0.0
2017-Sep-12 06:26N 40°08' W 074°45'0 0.0
2017-Sep-12 05:56N 40°08' W 074°45'0 0.0
2017-Sep-12 05:29N 40°08' W 074°45'0 0.0
2017-Sep-12 04:59N 40°08' W 074°45'0 0.0
2017-Sep-12 04:29N 40°08' W 074°45'0 0.0
2017-Sep-12 04:00N 40°08' W 074°45'0 0.0
2017-Sep-12 03:29N 40°08' W 074°45'0 0.0
2017-Sep-12 02:59N 40°08' W 074°45'0 0.0
2017-Sep-12 02:29N 40°08' W 074°45'0 0.0
2017-Sep-12 01:59N 40°08' W 074°45'0 0.0
2017-Sep-12 01:30N 40°08' W 074°45'0 0.0
2017-Sep-12 01:00N 40°08' W 074°45'0 0.0
2017-Sep-12 00:30N 40°08' W 074°45'0 0.0
2017-Sep-12 00:00N 40°08' W 074°45'0 0.0
2017-Sep-11 23:30N 40°08' W 074°45'0 0.0
2017-Sep-11 23:00N 40°08' W 074°45'0 0.0
2017-Sep-11 22:29N 40°08' W 074°45'0 0.0
2017-Sep-11 21:59N 40°08' W 074°45'0 0.0
2017-Sep-11 21:30N 40°08' W 074°45'0 0.0
2017-Sep-11 20:57N 40°08' W 074°45'0 0.0
2017-Sep-11 20:30N 40°08' W 074°45'0 0.0
2017-Sep-11 19:59N 40°08' W 074°45'0 0.0
2017-Sep-11 19:29N 40°08' W 074°45'0 0.0
2017-Sep-11 19:00N 40°08' W 074°45'0 0.0
2017-Sep-11 18:29N 40°08' W 074°45'0 0.0
2017-Sep-11 17:59N 40°08' W 074°45'0 0.0
2017-Sep-11 17:30N 40°08' W 074°45'0 0.0
2017-Sep-11 16:54N 40°08' W 074°45'0 0.0
2017-Sep-11 16:30N 40°08' W 074°45'0 0.0
2017-Sep-11 16:00N 40°08' W 074°45'0 0.0
2017-Sep-11 15:30N 40°08' W 074°45'0 0.0
2017-Sep-11 15:00N 40°08' W 074°45'0 0.0
2017-Sep-11 14:30N 40°08' W 074°45'0 0.0
2017-Sep-11 13:59N 40°08' W 074°45'0 0.0
2017-Sep-11 13:21N 40°08' W 074°45'0 0.0
2017-Sep-11 12:59N 40°08' W 074°45'0 0.0
2017-Sep-11 12:30N 40°08' W 074°45'0 0.0
2017-Sep-11 11:59N 40°08' W 074°45'0 0.0
2017-Sep-11 11:30N 40°08' W 074°45'0 0.0
2017-Sep-11 11:00N 40°08' W 074°45'0 0.0
2017-Sep-11 10:30N 40°08' W 074°45'0 0.0
2017-Sep-11 10:00N 40°08' W 074°45'0 0.0
2017-Sep-11 09:29N 40°08' W 074°45'0 0.0
2017-Sep-11 09:00N 40°08' W 074°45'0 0.0
2017-Sep-11 08:29N 40°08' W 074°45'0 0.0
2017-Sep-11 07:59N 40°08' W 074°45'0 0.0
2017-Sep-11 07:29N 40°08' W 074°45'0 0.0
2017-Sep-11 07:00N 40°08' W 074°45'0 0.0
2017-Sep-11 06:29N 40°08' W 074°45'0 0.0
2017-Sep-11 06:00N 40°08' W 074°45'0 0.0
2017-Sep-11 05:30N 40°08' W 074°45'0 0.0
2017-Sep-11 05:00N 40°08' W 074°45'0 0.0
2017-Sep-11 04:29N 40°08' W 074°45'0 0.0
2017-Sep-11 04:00N 40°08' W 074°45'0 0.0
2017-Sep-11 03:26N 40°08' W 074°45'0 0.0
2017-Sep-11 02:59N 40°08' W 074°45'0 0.0
2017-Sep-11 02:30N 40°08' W 074°45'0 0.0
2017-Sep-11 02:00N 40°08' W 074°45'0 0.0
2017-Sep-11 01:29N 40°08' W 074°45'0 0.0
2017-Sep-11 00:59N 40°08' W 074°45'0 0.0
2017-Sep-11 00:29N 40°08' W 074°45'0 0.0
2017-Sep-10 23:59N 40°08' W 074°45'0 0.0
2017-Sep-10 23:30N 40°08' W 074°45'0 0.0
2017-Sep-10 22:59N 40°08' W 074°45'0 0.0
2017-Sep-10 22:30N 40°08' W 074°45'0 0.0
2017-Sep-10 21:59N 40°08' W 074°45'0 0.0
2017-Sep-10 21:29N 40°08' W 074°45'0 0.0
2017-Sep-10 20:59N 40°08' W 074°45'0 0.0
2017-Sep-10 20:30N 40°08' W 074°45'0 0.0
2017-Sep-10 20:00N 40°08' W 074°45'0 0.0
2017-Sep-10 19:26N 40°08' W 074°45'0 0.0
2017-Sep-10 18:59N 40°08' W 074°45'0 0.0
2017-Sep-10 18:30N 40°08' W 074°45'0 0.0
2017-Sep-10 18:00N 40°08' W 074°45'0 0.0
2017-Sep-10 17:27N 40°08' W 074°45'0 0.0
2017-Sep-10 16:59N 40°08' W 074°45'0 0.0
2017-Sep-10 16:30N 40°08' W 074°45'0 0.0
2017-Sep-10 16:00N 40°08' W 074°45'0 0.0
2017-Sep-10 15:30N 40°08' W 074°45'0 0.0
2017-Sep-10 15:00N 40°08' W 074°45'0 0.0
2017-Sep-10 14:00N 40°08' W 074°45'0 0.0
2017-Sep-10 13:30N 40°08' W 074°45'0 0.0
2017-Sep-10 13:00N 40°08' W 074°45'0 0.0
2017-Sep-10 12:30N 40°08' W 074°45'0 0.0
2017-Sep-10 12:00N 40°08' W 074°45'0 0.0
2017-Sep-10 11:30N 40°08' W 074°45'0 0.0
2017-Sep-10 11:00N 40°08' W 074°45'0 0.0
2017-Sep-10 10:30N 40°08' W 074°45'0 0.0
2017-Sep-10 10:00N 40°08' W 074°45'0 0.0
2017-Sep-10 09:30N 40°08' W 074°45'0 0.0
2017-Sep-10 09:00N 40°08' W 074°45'0 0.0
2017-Sep-10 08:30N 40°08' W 074°45'0 0.0
2017-Sep-10 08:00N 40°08' W 074°45'0 0.0
2017-Sep-10 07:30N 40°08' W 074°45'0 0.0
2017-Sep-10 07:00N 40°08' W 074°45'0 0.0
2017-Sep-10 06:30N 40°08' W 074°45'0 0.0
2017-Sep-10 05:54N 40°08' W 074°45'0 0.0
2017-Sep-10 05:30N 40°08' W 074°45'0 0.0
2017-Sep-10 04:59N 40°08' W 074°45'0 0.0
2017-Sep-10 04:29N 40°08' W 074°45'0 0.0
2017-Sep-10 03:57N 40°08' W 074°45'0 0.0
2017-Sep-10 03:29N 40°08' W 074°45'0 0.0
2017-Sep-10 02:59N 40°08' W 074°45'0 0.0
2017-Sep-10 02:30N 40°08' W 074°45'0 0.0
2017-Sep-10 01:59N 40°08' W 074°45'0 0.0
2017-Sep-10 01:30N 40°08' W 074°45'0 0.0
2017-Sep-10 01:00N 40°08' W 074°45'0 0.0
2017-Sep-10 00:30N 40°08' W 074°45'0 0.0
2017-Sep-10 00:00N 40°08' W 074°45'0 0.0
2017-Sep-09 23:30N 40°08' W 074°45'0 0.0
2017-Sep-09 23:00N 40°08' W 074°45'0 0.0
2017-Sep-09 22:30N 40°08' W 074°45'0 0.0
2017-Sep-09 22:00N 40°08' W 074°45'0 0.0
2017-Sep-09 21:30N 40°08' W 074°45'0 0.0
2017-Sep-09 21:00N 40°08' W 074°45'0 0.0
2017-Sep-09 20:27N 40°08' W 074°45'0 0.0
2017-Sep-09 20:00N 40°08' W 074°45'0 0.0
2017-Sep-09 19:27N 40°08' W 074°45'0 0.0
2017-Sep-09 19:00N 40°08' W 074°45'0 0.0
2017-Sep-09 18:30N 40°08' W 074°45'0 0.0
2017-Sep-09 18:00N 40°08' W 074°45'0 0.0
2017-Sep-09 17:30N 40°08' W 074°45'0 0.0
2017-Sep-09 16:59N 40°08' W 074°45'0 0.0
2017-Sep-09 16:30N 40°08' W 074°45'0 0.0
2017-Sep-09 15:59N 40°08' W 074°45'0 0.0
2017-Sep-09 15:30N 40°08' W 074°45'0 0.0
2017-Sep-09 15:00N 40°08' W 074°45'0 0.0
2017-Sep-09 14:26N 40°08' W 074°45'0 0.0
2017-Sep-09 14:00N 40°08' W 074°45'0 0.0
2017-Sep-09 13:29N 40°08' W 074°45'0 0.0
2017-Sep-09 13:00N 40°08' W 074°45'  

Dump ship's entire track history